sensor_id;sensor_type;location;lat;lon;timestamp;P1;durP1;ratioP1;P2;durP2;ratioP2
85316;SDS011;75721;52.330;9.772;2024-02-21T00:01:03;26.08;;;10.63;;
85316;SDS011;75721;52.330;9.772;2024-02-21T00:03:29;29.95;;;10.15;;
85316;SDS011;75721;52.330;9.772;2024-02-21T00:05:54;27.57;;;11.27;;
85316;SDS011;75721;52.330;9.772;2024-02-21T00:08:19;22.30;;;9.80;;
85316;SDS011;75721;52.330;9.772;2024-02-21T00:10:44;29.17;;;10.90;;
85316;SDS011;75721;52.330;9.772;2024-02-21T00:13:10;22.50;;;10.50;;
85316;SDS011;75721;52.330;9.772;2024-02-21T00:15:35;30.17;;;10.40;;
85316;SDS011;75721;52.330;9.772;2024-02-21T00:18:00;29.40;;;12.43;;
85316;SDS011;75721;52.330;9.772;2024-02-21T00:20:25;25.53;;;9.33;;
85316;SDS011;75721;52.330;9.772;2024-02-21T00:22:51;30.63;;;11.60;;
85316;SDS011;75721;52.330;9.772;2024-02-21T00:25:16;24.88;;;10.45;;
85316;SDS011;75721;52.330;9.772;2024-02-21T00:27:42;26.85;;;10.30;;
85316;SDS011;75721;52.330;9.772;2024-02-21T00:30:07;26.47;;;10.60;;
85316;SDS011;75721;52.330;9.772;2024-02-21T00:32:33;26.25;;;10.27;;
85316;SDS011;75721;52.330;9.772;2024-02-21T00:35:01;28.60;;;10.75;;
85316;SDS011;75721;52.330;9.772;2024-02-21T00:37:27;24.15;;;10.02;;
85316;SDS011;75721;52.330;9.772;2024-02-21T00:39:53;25.13;;;9.25;;
85316;SDS011;75721;52.330;9.772;2024-02-21T00:42:19;26.15;;;10.98;;
85316;SDS011;75721;52.330;9.772;2024-02-21T00:44:44;25.27;;;10.13;;
85316;SDS011;75721;52.330;9.772;2024-02-21T00:47:10;23.83;;;10.23;;
85316;SDS011;75721;52.330;9.772;2024-02-21T00:49:35;25.08;;;10.38;;
85316;SDS011;75721;52.330;9.772;2024-02-21T00:52:00;28.20;;;10.20;;
85316;SDS011;75721;52.330;9.772;2024-02-21T00:54:26;24.13;;;9.80;;
85316;SDS011;75721;52.330;9.772;2024-02-21T00:56:51;25.92;;;10.45;;
85316;SDS011;75721;52.330;9.772;2024-02-21T00:59:16;21.93;;;10.37;;
85316;SDS011;75721;52.330;9.772;2024-02-21T01:01:43;29.98;;;9.98;;
85316;SDS011;75721;52.330;9.772;2024-02-21T01:04:11;23.50;;;10.03;;
85316;SDS011;75721;52.330;9.772;2024-02-21T01:06:37;30.52;;;9.98;;
85316;SDS011;75721;52.330;9.772;2024-02-21T01:09:02;26.93;;;10.63;;
85316;SDS011;75721;52.330;9.772;2024-02-21T01:11:27;30.63;;;10.83;;
85316;SDS011;75721;52.330;9.772;2024-02-21T01:13:53;34.87;;;11.03;;
85316;SDS011;75721;52.330;9.772;2024-02-21T01:16:18;26.60;;;10.75;;
85316;SDS011;75721;52.330;9.772;2024-02-21T01:18:43;26.80;;;11.17;;
85316;SDS011;75721;52.330;9.772;2024-02-21T01:21:09;28.93;;;10.43;;
85316;SDS011;75721;52.330;9.772;2024-02-21T01:23:35;30.05;;;10.95;;
85316;SDS011;75721;52.330;9.772;2024-02-21T01:26:01;27.88;;;9.60;;
85316;SDS011;75721;52.330;9.772;2024-02-21T01:28:27;26.17;;;11.00;;
85316;SDS011;75721;52.330;9.772;2024-02-21T01:30:52;27.50;;;11.00;;
85316;SDS011;75721;52.330;9.772;2024-02-21T01:33:17;25.47;;;10.87;;
85316;SDS011;75721;52.330;9.772;2024-02-21T01:35:43;25.73;;;9.85;;
85316;SDS011;75721;52.330;9.772;2024-02-21T01:38:08;28.30;;;10.40;;
85316;SDS011;75721;52.330;9.772;2024-02-21T01:40:34;21.30;;;9.30;;
85316;SDS011;75721;52.330;9.772;2024-02-21T01:42:59;24.50;;;10.93;;
85316;SDS011;75721;52.330;9.772;2024-02-21T01:45:24;26.40;;;9.47;;
85316;SDS011;75721;52.330;9.772;2024-02-21T01:47:49;24.17;;;9.60;;
85316;SDS011;75721;52.330;9.772;2024-02-21T01:50:15;25.90;;;11.38;;
85316;SDS011;75721;52.330;9.772;2024-02-21T01:52:42;31.30;;;10.88;;
85316;SDS011;75721;52.330;9.772;2024-02-21T01:55:11;26.02;;;10.95;;
85316;SDS011;75721;52.330;9.772;2024-02-21T01:57:39;24.20;;;10.18;;
85316;SDS011;75721;52.330;9.772;2024-02-21T02:00:07;23.60;;;10.15;;
85316;SDS011;75721;52.330;9.772;2024-02-21T02:02:35;24.05;;;9.93;;
85316;SDS011;75721;52.330;9.772;2024-02-21T02:05:03;26.50;;;11.45;;
85316;SDS011;75721;52.330;9.772;2024-02-21T02:07:29;30.00;;;10.85;;
85316;SDS011;75721;52.330;9.772;2024-02-21T02:09:54;26.57;;;11.80;;
85316;SDS011;75721;52.330;9.772;2024-02-21T02:12:20;26.73;;;10.87;;
85316;SDS011;75721;52.330;9.772;2024-02-21T02:14:46;24.40;;;9.88;;
85316;SDS011;75721;52.330;9.772;2024-02-21T02:17:11;32.20;;;9.23;;
85316;SDS011;75721;52.330;9.772;2024-02-21T02:19:37;21.38;;;10.50;;
85316;SDS011;75721;52.330;9.772;2024-02-21T02:22:06;37.10;;;11.40;;
85316;SDS011;75721;52.330;9.772;2024-02-21T02:24:38;30.15;;;10.23;;
85316;SDS011;75721;52.330;9.772;2024-02-21T02:27:04;20.75;;;8.77;;
85316;SDS011;75721;52.330;9.772;2024-02-21T02:29:31;25.83;;;10.10;;
85316;SDS011;75721;52.330;9.772;2024-02-21T02:31:57;24.75;;;8.95;;
85316;SDS011;75721;52.330;9.772;2024-02-21T02:34:23;26.17;;;12.00;;
85316;SDS011;75721;52.330;9.772;2024-02-21T02:36:48;26.13;;;10.17;;
85316;SDS011;75721;52.330;9.772;2024-02-21T02:39:14;21.00;;;9.25;;
85316;SDS011;75721;52.330;9.772;2024-02-21T02:41:39;29.53;;;10.30;;
85316;SDS011;75721;52.330;9.772;2024-02-21T02:44:05;21.50;;;8.67;;
85316;SDS011;75721;52.330;9.772;2024-02-21T02:46:30;21.87;;;8.77;;
85316;SDS011;75721;52.330;9.772;2024-02-21T02:48:55;19.53;;;9.23;;
85316;SDS011;75721;52.330;9.772;2024-02-21T02:51:20;22.90;;;9.80;;
85316;SDS011;75721;52.330;9.772;2024-02-21T02:53:46;25.57;;;10.80;;
85316;SDS011;75721;52.330;9.772;2024-02-21T02:56:14;36.47;;;11.13;;
85316;SDS011;75721;52.330;9.772;2024-02-21T02:58:40;27.75;;;9.80;;
85316;SDS011;75721;52.330;9.772;2024-02-21T03:01:07;21.67;;;9.90;;
85316;SDS011;75721;52.330;9.772;2024-02-21T03:03:32;16.20;;;7.73;;
85316;SDS011;75721;52.330;9.772;2024-02-21T03:05:57;27.37;;;10.37;;
85316;SDS011;75721;52.330;9.772;2024-02-21T03:08:22;20.13;;;9.80;;
85316;SDS011;75721;52.330;9.772;2024-02-21T03:10:48;26.70;;;9.93;;
85316;SDS011;75721;52.330;9.772;2024-02-21T03:13:13;26.03;;;10.73;;
85316;SDS011;75721;52.330;9.772;2024-02-21T03:15:39;24.67;;;9.90;;
85316;SDS011;75721;52.330;9.772;2024-02-21T03:18:04;27.92;;;9.95;;
85316;SDS011;75721;52.330;9.772;2024-02-21T03:20:29;20.30;;;9.20;;
85316;SDS011;75721;52.330;9.772;2024-02-21T03:22:55;22.73;;;9.70;;
85316;SDS011;75721;52.330;9.772;2024-02-21T03:25:20;25.50;;;9.57;;
85316;SDS011;75721;52.330;9.772;2024-02-21T03:27:45;21.40;;;9.23;;
85316;SDS011;75721;52.330;9.772;2024-02-21T03:30:11;27.23;;;10.52;;
85316;SDS011;75721;52.330;9.772;2024-02-21T03:32:37;22.50;;;10.93;;
85316;SDS011;75721;52.330;9.772;2024-02-21T03:35:04;23.63;;;9.88;;
85316;SDS011;75721;52.330;9.772;2024-02-21T03:37:29;21.50;;;10.30;;
85316;SDS011;75721;52.330;9.772;2024-02-21T03:39:55;21.93;;;10.03;;
85316;SDS011;75721;52.330;9.772;2024-02-21T03:42:20;22.42;;;8.70;;
85316;SDS011;75721;52.330;9.772;2024-02-21T03:44:45;22.20;;;9.73;;
85316;SDS011;75721;52.330;9.772;2024-02-21T03:47:11;24.87;;;10.60;;
85316;SDS011;75721;52.330;9.772;2024-02-21T03:49:36;25.35;;;10.18;;
85316;SDS011;75721;52.330;9.772;2024-02-21T03:52:02;23.73;;;9.85;;
85316;SDS011;75721;52.330;9.772;2024-02-21T03:54:27;20.38;;;9.02;;
85316;SDS011;75721;52.330;9.772;2024-02-21T03:56:53;19.50;;;10.03;;
85316;SDS011;75721;52.330;9.772;2024-02-21T03:59:18;22.20;;;10.37;;
85316;SDS011;75721;52.330;9.772;2024-02-21T04:01:43;24.33;;;10.33;;
85316;SDS011;75721;52.330;9.772;2024-02-21T04:04:09;29.73;;;11.03;;
85316;SDS011;75721;52.330;9.772;2024-02-21T04:06:35;26.30;;;11.10;;
85316;SDS011;75721;52.330;9.772;2024-02-21T04:09:01;33.58;;;11.23;;
85316;SDS011;75721;52.330;9.772;2024-02-21T04:11:26;20.20;;;10.10;;
85316;SDS011;75721;52.330;9.772;2024-02-21T04:13:52;30.57;;;10.90;;
85316;SDS011;75721;52.330;9.772;2024-02-21T04:16:17;25.70;;;10.57;;
85316;SDS011;75721;52.330;9.772;2024-02-21T04:18:43;24.98;;;10.50;;
85316;SDS011;75721;52.330;9.772;2024-02-21T04:21:08;21.70;;;10.43;;
85316;SDS011;75721;52.330;9.772;2024-02-21T04:23:34;25.95;;;10.38;;
85316;SDS011;75721;52.330;9.772;2024-02-21T04:26:00;28.50;;;9.53;;
85316;SDS011;75721;52.330;9.772;2024-02-21T04:28:25;20.33;;;8.73;;
85316;SDS011;75721;52.330;9.772;2024-02-21T04:30:50;26.97;;;9.83;;
85316;SDS011;75721;52.330;9.772;2024-02-21T04:33:16;21.50;;;9.67;;
85316;SDS011;75721;52.330;9.772;2024-02-21T04:35:41;19.70;;;10.27;;
85316;SDS011;75721;52.330;9.772;2024-02-21T04:38:06;23.67;;;9.97;;
85316;SDS011;75721;52.330;9.772;2024-02-21T04:40:31;23.70;;;8.90;;
85316;SDS011;75721;52.330;9.772;2024-02-21T04:42:57;24.50;;;10.80;;
85316;SDS011;75721;52.330;9.772;2024-02-21T04:45:23;25.20;;;10.50;;
85316;SDS011;75721;52.330;9.772;2024-02-21T04:47:48;26.23;;;9.63;;
85316;SDS011;75721;52.330;9.772;2024-02-21T04:50:13;23.25;;;10.05;;
85316;SDS011;75721;52.330;9.772;2024-02-21T04:52:39;27.27;;;10.48;;
85316;SDS011;75721;52.330;9.772;2024-02-21T04:55:04;30.50;;;10.43;;
85316;SDS011;75721;52.330;9.772;2024-02-21T04:57:29;22.42;;;10.05;;
85316;SDS011;75721;52.330;9.772;2024-02-21T04:59:55;26.63;;;10.80;;
85316;SDS011;75721;52.330;9.772;2024-02-21T05:02:20;23.80;;;9.90;;
85316;SDS011;75721;52.330;9.772;2024-02-21T05:04:47;25.55;;;9.95;;
85316;SDS011;75721;52.330;9.772;2024-02-21T05:07:12;24.60;;;11.40;;
85316;SDS011;75721;52.330;9.772;2024-02-21T05:09:38;26.93;;;10.50;;
85316;SDS011;75721;52.330;9.772;2024-02-21T05:12:03;27.45;;;10.10;;
85316;SDS011;75721;52.330;9.772;2024-02-21T05:14:29;25.42;;;11.70;;
85316;SDS011;75721;52.330;9.772;2024-02-21T05:16:54;26.97;;;10.63;;
85316;SDS011;75721;52.330;9.772;2024-02-21T05:19:19;30.23;;;11.50;;
85316;SDS011;75721;52.330;9.772;2024-02-21T05:21:45;26.73;;;11.33;;
85316;SDS011;75721;52.330;9.772;2024-02-21T05:24:10;29.08;;;11.55;;
85316;SDS011;75721;52.330;9.772;2024-02-21T05:26:37;26.20;;;11.55;;
85316;SDS011;75721;52.330;9.772;2024-02-21T05:29:03;24.93;;;10.57;;
85316;SDS011;75721;52.330;9.772;2024-02-21T05:34:15;25.33;;;9.98;;
85316;SDS011;75721;52.330;9.772;2024-02-21T05:36:41;27.23;;;10.17;;
85316;SDS011;75721;52.330;9.772;2024-02-21T05:39:06;23.83;;;9.57;;
85316;SDS011;75721;52.330;9.772;2024-02-21T05:41:31;20.73;;;9.20;;
85316;SDS011;75721;52.330;9.772;2024-02-21T05:43:56;24.87;;;10.97;;
85316;SDS011;75721;52.330;9.772;2024-02-21T05:46:22;20.13;;;10.53;;
85316;SDS011;75721;52.330;9.772;2024-02-21T05:48:47;22.27;;;9.73;;
85316;SDS011;75721;52.330;9.772;2024-02-21T05:51:12;23.63;;;9.47;;
85316;SDS011;75721;52.330;9.772;2024-02-21T05:53:37;20.60;;;9.63;;
85316;SDS011;75721;52.330;9.772;2024-02-21T05:56:09;23.30;;;10.60;;
85316;SDS011;75721;52.330;9.772;2024-02-21T05:58:38;24.13;;;9.48;;
85316;SDS011;75721;52.330;9.772;2024-02-21T06:01:04;23.52;;;9.40;;
85316;SDS011;75721;52.330;9.772;2024-02-21T06:03:32;21.92;;;9.57;;
85316;SDS011;75721;52.330;9.772;2024-02-21T06:05:58;26.38;;;10.70;;
85316;SDS011;75721;52.330;9.772;2024-02-21T06:08:24;25.65;;;10.55;;
85316;SDS011;75721;52.330;9.772;2024-02-21T06:10:49;27.58;;;10.02;;
85316;SDS011;75721;52.330;9.772;2024-02-21T06:13:19;24.38;;;10.27;;
85316;SDS011;75721;52.330;9.772;2024-02-21T06:15:46;23.83;;;9.43;;
85316;SDS011;75721;52.330;9.772;2024-02-21T06:18:11;20.60;;;8.38;;
85316;SDS011;75721;52.330;9.772;2024-02-21T06:20:37;23.30;;;10.60;;
85316;SDS011;75721;52.330;9.772;2024-02-21T06:23:05;24.73;;;9.23;;
85316;SDS011;75721;52.330;9.772;2024-02-21T06:25:30;20.03;;;9.87;;
85316;SDS011;75721;52.330;9.772;2024-02-21T06:27:55;21.77;;;10.10;;
85316;SDS011;75721;52.330;9.772;2024-02-21T06:30:21;24.70;;;10.60;;
85316;SDS011;75721;52.330;9.772;2024-02-21T06:32:46;28.43;;;10.20;;
85316;SDS011;75721;52.330;9.772;2024-02-21T06:35:11;25.83;;;10.40;;
85316;SDS011;75721;52.330;9.772;2024-02-21T06:37:36;25.00;;;9.20;;
85316;SDS011;75721;52.330;9.772;2024-02-21T06:40:03;25.55;;;10.68;;
85316;SDS011;75721;52.330;9.772;2024-02-21T06:42:29;26.10;;;10.20;;
85316;SDS011;75721;52.330;9.772;2024-02-21T06:44:54;23.45;;;10.15;;
85316;SDS011;75721;52.330;9.772;2024-02-21T06:47:21;24.27;;;10.07;;
85316;SDS011;75721;52.330;9.772;2024-02-21T06:49:50;26.88;;;10.68;;
85316;SDS011;75721;52.330;9.772;2024-02-21T06:52:19;21.27;;;10.25;;
85316;SDS011;75721;52.330;9.772;2024-02-21T06:54:49;24.88;;;11.23;;
85316;SDS011;75721;52.330;9.772;2024-02-21T06:57:14;25.58;;;10.27;;
85316;SDS011;75721;52.330;9.772;2024-02-21T06:59:40;23.15;;;9.88;;
85316;SDS011;75721;52.330;9.772;2024-02-21T07:02:06;29.50;;;11.60;;
85316;SDS011;75721;52.330;9.772;2024-02-21T07:04:32;23.05;;;9.73;;
85316;SDS011;75721;52.330;9.772;2024-02-21T07:06:58;25.23;;;11.30;;
85316;SDS011;75721;52.330;9.772;2024-02-21T07:09:23;28.60;;;9.80;;
85316;SDS011;75721;52.330;9.772;2024-02-21T07:11:48;21.80;;;9.70;;
85316;SDS011;75721;52.330;9.772;2024-02-21T07:14:18;18.37;;;9.17;;
85316;SDS011;75721;52.330;9.772;2024-02-21T07:16:43;25.63;;;9.25;;
85316;SDS011;75721;52.330;9.772;2024-02-21T07:19:08;22.40;;;9.50;;
85316;SDS011;75721;52.330;9.772;2024-02-21T07:21:34;21.17;;;9.13;;
85316;SDS011;75721;52.330;9.772;2024-02-21T07:23:59;20.10;;;8.60;;
85316;SDS011;75721;52.330;9.772;2024-02-21T07:26:25;21.57;;;9.87;;
85316;SDS011;75721;52.330;9.772;2024-02-21T07:28:50;22.35;;;9.10;;
85316;SDS011;75721;52.330;9.772;2024-02-21T07:31:15;21.97;;;10.77;;
85316;SDS011;75721;52.330;9.772;2024-02-21T07:33:41;21.20;;;8.50;;
85316;SDS011;75721;52.330;9.772;2024-02-21T07:36:07;20.83;;;8.17;;
85316;SDS011;75721;52.330;9.772;2024-02-21T07:38:33;20.25;;;9.00;;
85316;SDS011;75721;52.330;9.772;2024-02-21T07:40:59;21.58;;;8.52;;
85316;SDS011;75721;52.330;9.772;2024-02-21T07:43:24;19.30;;;9.30;;
85316;SDS011;75721;52.330;9.772;2024-02-21T07:45:51;16.65;;;7.28;;
85316;SDS011;75721;52.330;9.772;2024-02-21T07:48:18;20.42;;;9.35;;
85316;SDS011;75721;52.330;9.772;2024-02-21T07:50:44;27.67;;;8.82;;
85316;SDS011;75721;52.330;9.772;2024-02-21T07:53:09;19.92;;;8.20;;
85316;SDS011;75721;52.330;9.772;2024-02-21T07:55:34;18.77;;;8.17;;
85316;SDS011;75721;52.330;9.772;2024-02-21T07:58:00;24.27;;;8.47;;
85316;SDS011;75721;52.330;9.772;2024-02-21T08:00:25;18.70;;;7.10;;
85316;SDS011;75721;52.330;9.772;2024-02-21T08:02:50;20.20;;;8.20;;
85316;SDS011;75721;52.330;9.772;2024-02-21T08:05:16;19.25;;;8.27;;
85316;SDS011;75721;52.330;9.772;2024-02-21T08:07:41;19.00;;;7.65;;
85316;SDS011;75721;52.330;9.772;2024-02-21T08:10:06;20.40;;;9.50;;
85316;SDS011;75721;52.330;9.772;2024-02-21T08:12:33;19.77;;;8.38;;
85316;SDS011;75721;52.330;9.772;2024-02-21T08:14:58;21.88;;;7.88;;
85316;SDS011;75721;52.330;9.772;2024-02-21T08:17:24;18.63;;;8.20;;
85316;SDS011;75721;52.330;9.772;2024-02-21T08:19:49;15.83;;;6.93;;
85316;SDS011;75721;52.330;9.772;2024-02-21T08:22:15;20.93;;;7.97;;
85316;SDS011;75721;52.330;9.772;2024-02-21T08:24:40;18.08;;;7.63;;
85316;SDS011;75721;52.330;9.772;2024-02-21T08:27:05;22.90;;;7.27;;
85316;SDS011;75721;52.330;9.772;2024-02-21T08:29:31;16.85;;;7.93;;
85316;SDS011;75721;52.330;9.772;2024-02-21T08:31:56;17.67;;;6.97;;
85316;SDS011;75721;52.330;9.772;2024-02-21T08:34:21;21.43;;;7.60;;
85316;SDS011;75721;52.330;9.772;2024-02-21T08:36:47;18.47;;;7.13;;
85316;SDS011;75721;52.330;9.772;2024-02-21T08:39:12;16.37;;;7.23;;
85316;SDS011;75721;52.330;9.772;2024-02-21T08:41:41;21.48;;;7.55;;
85316;SDS011;75721;52.330;9.772;2024-02-21T08:44:07;18.92;;;7.78;;
85316;SDS011;75721;52.330;9.772;2024-02-21T08:46:33;14.85;;;6.32;;
85316;SDS011;75721;52.330;9.772;2024-02-21T08:48:58;16.13;;;7.10;;
85316;SDS011;75721;52.330;9.772;2024-02-21T08:51:23;19.63;;;7.53;;
85316;SDS011;75721;52.330;9.772;2024-02-21T08:53:49;18.53;;;6.60;;
85316;SDS011;75721;52.330;9.772;2024-02-21T08:56:14;13.13;;;5.38;;
85316;SDS011;75721;52.330;9.772;2024-02-21T08:58:40;17.15;;;6.53;;
85316;SDS011;75721;52.330;9.772;2024-02-21T09:01:06;24.17;;;7.88;;
85316;SDS011;75721;52.330;9.772;2024-02-21T09:03:35;14.50;;;5.38;;
85316;SDS011;75721;52.330;9.772;2024-02-21T09:06:01;13.88;;;5.07;;
85316;SDS011;75721;52.330;9.772;2024-02-21T09:08:26;13.87;;;5.17;;
85316;SDS011;75721;52.330;9.772;2024-02-21T09:10:52;10.23;;;4.53;;
85316;SDS011;75721;52.330;9.772;2024-02-21T09:13:18;15.43;;;5.95;;
85316;SDS011;75721;52.330;9.772;2024-02-21T09:15:43;13.52;;;4.65;;
85316;SDS011;75721;52.330;9.772;2024-02-21T09:18:09;12.63;;;4.97;;
85316;SDS011;75721;52.330;9.772;2024-02-21T09:20:34;10.80;;;4.10;;
85316;SDS011;75721;52.330;9.772;2024-02-21T09:22:59;14.43;;;5.37;;
85316;SDS011;75721;52.330;9.772;2024-02-21T09:25:24;10.70;;;4.47;;
85316;SDS011;75721;52.330;9.772;2024-02-21T09:27:50;13.60;;;4.57;;
85316;SDS011;75721;52.330;9.772;2024-02-21T09:30:17;11.82;;;4.68;;
85316;SDS011;75721;52.330;9.772;2024-02-21T09:32:42;11.95;;;4.25;;
85316;SDS011;75721;52.330;9.772;2024-02-21T09:35:07;12.80;;;4.23;;
85316;SDS011;75721;52.330;9.772;2024-02-21T09:37:33;11.63;;;5.83;;
85316;SDS011;75721;52.330;9.772;2024-02-21T09:39:58;13.57;;;3.92;;
85316;SDS011;75721;52.330;9.772;2024-02-21T09:42:27;13.07;;;4.35;;
85316;SDS011;75721;52.330;9.772;2024-02-21T09:45:03;12.77;;;4.32;;
85316;SDS011;75721;52.330;9.772;2024-02-21T09:50:44;10.70;;;3.75;;
85316;SDS011;75721;52.330;9.772;2024-02-21T09:53:12;12.30;;;4.00;;
85316;SDS011;75721;52.330;9.772;2024-02-21T09:55:38;9.73;;;4.03;;
85316;SDS011;75721;52.330;9.772;2024-02-21T09:58:06;12.32;;;4.28;;
85316;SDS011;75721;52.330;9.772;2024-02-21T10:00:32;14.18;;;3.78;;
85316;SDS011;75721;52.330;9.772;2024-02-21T10:02:58;10.93;;;4.22;;
85316;SDS011;75721;52.330;9.772;2024-02-21T10:05:24;9.55;;;4.00;;
85316;SDS011;75721;52.330;9.772;2024-02-21T10:07:50;10.90;;;4.50;;
85316;SDS011;75721;52.330;9.772;2024-02-21T10:10:16;8.02;;;3.30;;
85316;SDS011;75721;52.330;9.772;2024-02-21T10:12:49;13.18;;;3.80;;
85316;SDS011;75721;52.330;9.772;2024-02-21T10:15:22;12.20;;;4.15;;
85316;SDS011;75721;52.330;9.772;2024-02-21T10:17:58;11.93;;;4.30;;
85316;SDS011;75721;52.330;9.772;2024-02-21T10:20:25;8.77;;;3.75;;
85316;SDS011;75721;52.330;9.772;2024-02-21T10:23:00;8.90;;;3.17;;
85316;SDS011;75721;52.330;9.772;2024-02-21T10:25:36;7.75;;;3.22;;
85316;SDS011;75721;52.330;9.772;2024-02-21T10:28:08;9.30;;;3.65;;
85316;SDS011;75721;52.330;9.772;2024-02-21T10:30:33;10.40;;;3.80;;
85316;SDS011;75721;52.330;9.772;2024-02-21T10:32:59;10.90;;;2.90;;
85316;SDS011;75721;52.330;9.772;2024-02-21T10:35:31;6.97;;;2.80;;
85316;SDS011;75721;52.330;9.772;2024-02-21T10:37:57;9.60;;;2.72;;
85316;SDS011;75721;52.330;9.772;2024-02-21T10:40:30;9.68;;;3.20;;
85316;SDS011;75721;52.330;9.772;2024-02-21T10:42:59;9.32;;;3.22;;
85316;SDS011;75721;52.330;9.772;2024-02-21T10:45:27;9.20;;;2.65;;
85316;SDS011;75721;52.330;9.772;2024-02-21T10:48:10;8.43;;;2.72;;
85316;SDS011;75721;52.330;9.772;2024-02-21T10:50:53;7.10;;;2.10;;
85316;SDS011;75721;52.330;9.772;2024-02-21T10:58:48;8.50;;;2.03;;
85316;SDS011;75721;52.330;9.772;2024-02-21T11:01:14;9.23;;;2.15;;
85316;SDS011;75721;52.330;9.772;2024-02-21T11:03:41;5.57;;;2.05;;
85316;SDS011;75721;52.330;9.772;2024-02-21T11:06:09;4.00;;;1.92;;
85316;SDS011;75721;52.330;9.772;2024-02-21T11:08:36;6.15;;;2.03;;
85316;SDS011;75721;52.330;9.772;2024-02-21T11:11:04;8.57;;;2.08;;
85316;SDS011;75721;52.330;9.772;2024-02-21T11:13:37;7.75;;;1.55;;
85316;SDS011;75721;52.330;9.772;2024-02-21T11:16:07;7.05;;;2.28;;
85316;SDS011;75721;52.330;9.772;2024-02-21T11:18:36;6.25;;;1.70;;
85316;SDS011;75721;52.330;9.772;2024-02-21T11:21:02;6.93;;;2.03;;
85316;SDS011;75721;52.330;9.772;2024-02-21T11:23:31;7.45;;;1.70;;
85316;SDS011;75721;52.330;9.772;2024-02-21T11:26:09;8.95;;;1.88;;
85316;SDS011;75721;52.330;9.772;2024-02-21T11:28:44;6.47;;;1.90;;
85316;SDS011;75721;52.330;9.772;2024-02-21T11:31:13;5.47;;;1.40;;
85316;SDS011;75721;52.330;9.772;2024-02-21T11:33:42;4.18;;;1.25;;
85316;SDS011;75721;52.330;9.772;2024-02-21T11:36:08;5.05;;;1.80;;
85316;SDS011;75721;52.330;9.772;2024-02-21T11:38:34;5.35;;;1.38;;
85316;SDS011;75721;52.330;9.772;2024-02-21T11:40:59;5.27;;;1.50;;
85316;SDS011;75721;52.330;9.772;2024-02-21T11:43:25;6.63;;;1.60;;
85316;SDS011;75721;52.330;9.772;2024-02-21T11:45:50;4.88;;;1.40;;
85316;SDS011;75721;52.330;9.772;2024-02-21T11:48:23;7.55;;;1.98;;
85316;SDS011;75721;52.330;9.772;2024-02-21T11:50:53;6.28;;;1.67;;
85316;SDS011;75721;52.330;9.772;2024-02-21T11:53:20;5.57;;;1.65;;
85316;SDS011;75721;52.330;9.772;2024-02-21T11:55:45;5.18;;;1.38;;
85316;SDS011;75721;52.330;9.772;2024-02-21T11:58:11;7.97;;;1.73;;
85316;SDS011;75721;52.330;9.772;2024-02-21T12:00:40;5.30;;;1.73;;
85316;SDS011;75721;52.330;9.772;2024-02-21T12:03:05;7.03;;;1.58;;
85316;SDS011;75721;52.330;9.772;2024-02-21T12:05:31;6.00;;;1.63;;
85316;SDS011;75721;52.330;9.772;2024-02-21T12:07:57;5.93;;;1.87;;
85316;SDS011;75721;52.330;9.772;2024-02-21T12:10:23;7.28;;;2.10;;
85316;SDS011;75721;52.330;9.772;2024-02-21T12:12:49;9.07;;;2.00;;
85316;SDS011;75721;52.330;9.772;2024-02-21T12:17:43;6.38;;;2.30;;
85316;SDS011;75721;52.330;9.772;2024-02-21T12:20:08;9.20;;;2.53;;
85316;SDS011;75721;52.330;9.772;2024-02-21T12:22:37;8.48;;;2.40;;
85316;SDS011;75721;52.330;9.772;2024-02-21T12:25:03;9.75;;;2.25;;
85316;SDS011;75721;52.330;9.772;2024-02-21T12:27:29;5.65;;;2.15;;
85316;SDS011;75721;52.330;9.772;2024-02-21T12:29:55;7.90;;;2.60;;
85316;SDS011;75721;52.330;9.772;2024-02-21T12:32:23;7.90;;;3.07;;
85316;SDS011;75721;52.330;9.772;2024-02-21T12:34:48;5.47;;;2.13;;
85316;SDS011;75721;52.330;9.772;2024-02-21T12:37:14;7.97;;;2.33;;
85316;SDS011;75721;52.330;9.772;2024-02-21T12:39:40;7.13;;;2.78;;
85316;SDS011;75721;52.330;9.772;2024-02-21T12:42:06;8.52;;;2.83;;
85316;SDS011;75721;52.330;9.772;2024-02-21T12:44:31;6.73;;;2.70;;
85316;SDS011;75721;52.330;9.772;2024-02-21T12:46:57;6.50;;;2.50;;
85316;SDS011;75721;52.330;9.772;2024-02-21T12:49:22;7.53;;;2.37;;
85316;SDS011;75721;52.330;9.772;2024-02-21T12:51:49;10.02;;;3.58;;
85316;SDS011;75721;52.330;9.772;2024-02-21T12:54:14;8.88;;;3.17;;
85316;SDS011;75721;52.330;9.772;2024-02-21T12:56:39;12.43;;;4.07;;
85316;SDS011;75721;52.330;9.772;2024-02-21T12:59:05;8.30;;;3.00;;
85316;SDS011;75721;52.330;9.772;2024-02-21T13:01:34;11.68;;;4.10;;
85316;SDS011;75721;52.330;9.772;2024-02-21T13:03:59;9.45;;;3.65;;
85316;SDS011;75721;52.330;9.772;2024-02-21T13:06:26;11.15;;;4.05;;
85316;SDS011;75721;52.330;9.772;2024-02-21T13:08:51;9.13;;;3.10;;
85316;SDS011;75721;52.330;9.772;2024-02-21T13:11:16;8.37;;;2.87;;
85316;SDS011;75721;52.330;9.772;2024-02-21T13:13:41;11.80;;;3.70;;
85316;SDS011;75721;52.330;9.772;2024-02-21T13:16:07;12.43;;;3.20;;
85316;SDS011;75721;52.330;9.772;2024-02-21T13:18:32;9.80;;;3.07;;
85316;SDS011;75721;52.330;9.772;2024-02-21T13:20:57;8.90;;;4.63;;
85316;SDS011;75721;52.330;9.772;2024-02-21T13:23:23;9.00;;;3.07;;
85316;SDS011;75721;52.330;9.772;2024-02-21T13:25:48;8.90;;;3.77;;
85316;SDS011;75721;52.330;9.772;2024-02-21T13:28:14;10.30;;;3.50;;
85316;SDS011;75721;52.330;9.772;2024-02-21T13:30:41;9.48;;;3.78;;
85316;SDS011;75721;52.330;9.772;2024-02-21T13:33:06;12.38;;;4.35;;
85316;SDS011;75721;52.330;9.772;2024-02-21T13:35:32;9.98;;;4.15;;
85316;SDS011;75721;52.330;9.772;2024-02-21T13:37:57;8.87;;;3.47;;
85316;SDS011;75721;52.330;9.772;2024-02-21T13:40:22;8.17;;;3.83;;
85316;SDS011;75721;52.330;9.772;2024-02-21T13:42:48;9.57;;;3.40;;
85316;SDS011;75721;52.330;9.772;2024-02-21T13:45:17;10.25;;;3.05;;
85316;SDS011;75721;52.330;9.772;2024-02-21T13:47:42;14.50;;;2.93;;
85316;SDS011;75721;52.330;9.772;2024-02-21T13:50:07;11.90;;;2.90;;
85316;SDS011;75721;52.330;9.772;2024-02-21T13:52:36;10.40;;;2.92;;
85316;SDS011;75721;52.330;9.772;2024-02-21T13:55:02;10.40;;;2.75;;
85316;SDS011;75721;52.330;9.772;2024-02-21T13:57:28;8.10;;;2.58;;
85316;SDS011;75721;52.330;9.772;2024-02-21T13:59:53;6.53;;;1.90;;
85316;SDS011;75721;52.330;9.772;2024-02-21T14:02:19;5.63;;;2.57;;
85316;SDS011;75721;52.330;9.772;2024-02-21T14:04:44;5.87;;;1.83;;
85316;SDS011;75721;52.330;9.772;2024-02-21T14:07:09;9.37;;;1.93;;
85316;SDS011;75721;52.330;9.772;2024-02-21T14:09:34;5.67;;;1.77;;
85316;SDS011;75721;52.330;9.772;2024-02-21T14:12:00;4.87;;;1.50;;
85316;SDS011;75721;52.330;9.772;2024-02-21T14:14:25;8.52;;;3.58;;
85316;SDS011;75721;52.330;9.772;2024-02-21T14:16:50;6.60;;;1.73;;
85316;SDS011;75721;52.330;9.772;2024-02-21T14:19:16;7.43;;;1.47;;
85316;SDS011;75721;52.330;9.772;2024-02-21T14:21:42;6.30;;;1.92;;
85316;SDS011;75721;52.330;9.772;2024-02-21T14:24:08;6.60;;;1.60;;
85316;SDS011;75721;52.330;9.772;2024-02-21T14:26:33;6.50;;;1.43;;
85316;SDS011;75721;52.330;9.772;2024-02-21T14:28:58;7.73;;;1.80;;
85316;SDS011;75721;52.330;9.772;2024-02-21T14:31:24;7.38;;;2.05;;
85316;SDS011;75721;52.330;9.772;2024-02-21T14:33:58;12.55;;;2.47;;
85316;SDS011;75721;52.330;9.772;2024-02-21T14:36:23;5.75;;;2.00;;
85316;SDS011;75721;52.330;9.772;2024-02-21T14:38:51;9.27;;;2.10;;
85316;SDS011;75721;52.330;9.772;2024-02-21T14:41:17;7.97;;;1.85;;